sensor_id;sensor_type;location;lat;lon;timestamp;noise_LAeq;noise_LA_min;noise_LA_max;noise_LA01;noise_LA95
18377;Laerm;9315;52.624;13.544;2022-10-26T00:01:14;57.08;32.99;72.81;;
18377;Laerm;9315;52.624;13.544;2022-10-26T00:03:45;54.14;36.10;71.73;;
18377;Laerm;9315;52.624;13.544;2022-10-26T00:06:20;53.87;39.51;72.61;;
18377;Laerm;9315;52.624;13.544;2022-10-26T00:08:48;57.55;36.26;73.59;;
18377;Laerm;9315;52.624;13.544;2022-10-26T00:11:16;54.18;38.62;70.17;;
18377;Laerm;9315;52.624;13.544;2022-10-26T00:13:45;43.70;36.00;55.50;;
18377;Laerm;9315;52.624;13.544;2022-10-26T00:16:15;44.02;37.15;53.09;;
18377;Laerm;9315;52.624;13.544;2022-10-26T00:18:43;58.46;37.06;73.75;;
18377;Laerm;9315;52.624;13.544;2022-10-26T00:21:11;44.61;38.53;53.96;;
18377;Laerm;9315;52.624;13.544;2022-10-26T00:23:38;43.42;35.34;53.89;;
18377;Laerm;9315;52.624;13.544;2022-10-26T00:26:06;40.49;34.68;49.81;;
18377;Laerm;9315;52.624;13.544;2022-10-26T00:28:33;38.25;30.54;54.04;;
18377;Laerm;9315;52.624;13.544;2022-10-26T00:31:10;52.93;32.04;71.17;;
18377;Laerm;9315;52.624;13.544;2022-10-26T00:33:37;55.23;36.32;71.07;;
18377;Laerm;9315;52.624;13.544;2022-10-26T00:36:05;53.38;31.68;70.62;;
18377;Laerm;9315;52.624;13.544;2022-10-26T00:38:36;58.37;40.54;75.36;;
18377;Laerm;9315;52.624;13.544;2022-10-26T00:41:03;63.60;39.52;82.81;;
18377;Laerm;9315;52.624;13.544;2022-10-26T00:45:58;44.45;39.02;51.48;;
18377;Laerm;9315;52.624;13.544;2022-10-26T00:48:33;53.28;36.57;70.90;;
18377;Laerm;9315;52.624;13.544;2022-10-26T00:54:09;62.04;38.79;79.44;;
18377;Laerm;9315;52.624;13.544;2022-10-26T00:56:37;58.60;35.83;76.72;;
18377;Laerm;9315;52.624;13.544;2022-10-26T00:59:08;57.74;41.13;76.23;;
18377;Laerm;9315;52.624;13.544;2022-10-26T01:01:40;55.84;38.92;76.04;;
18377;Laerm;9315;52.624;13.544;2022-10-26T01:04:10;59.09;37.53;73.86;;
18377;Laerm;9315;52.624;13.544;2022-10-26T01:06:38;44.59;37.28;51.86;;
18377;Laerm;9315;52.624;13.544;2022-10-26T01:09:07;63.25;39.12;77.66;;
18377;Laerm;9315;52.624;13.544;2022-10-26T01:11:34;54.60;37.95;72.44;;
18377;Laerm;9315;52.624;13.544;2022-10-26T01:14:06;58.98;39.14;73.79;;
18377;Laerm;9315;52.624;13.544;2022-10-26T01:27:53;59.89;39.58;73.77;;
18377;Laerm;9315;52.624;13.544;2022-10-26T01:30:43;57.34;40.77;75.21;;
18377;Laerm;9315;52.624;13.544;2022-10-26T01:33:28;55.07;39.10;71.27;;
18377;Laerm;9315;52.624;13.544;2022-10-26T01:38:57;61.00;37.35;78.64;;
18377;Laerm;9315;52.624;13.544;2022-10-26T01:41:32;52.10;37.39;67.98;;
18377;Laerm;9315;52.624;13.544;2022-10-26T01:44:22;58.42;37.31;79.45;;
18377;Laerm;9315;52.624;13.544;2022-10-26T01:46:53;44.38;38.96;51.01;;
18377;Laerm;9315;52.624;13.544;2022-10-26T01:49:32;60.48;42.35;74.56;;
18377;Laerm;9315;52.624;13.544;2022-10-26T01:52:01;60.74;40.28;76.66;;
18377;Laerm;9315;52.624;13.544;2022-10-26T01:54:28;64.61;41.75;81.89;;
18377;Laerm;9315;52.624;13.544;2022-10-26T01:57:00;53.34;41.93;69.32;;
18377;Laerm;9315;52.624;13.544;2022-10-26T02:00:05;60.00;41.12;76.36;;
18377;Laerm;9315;52.624;13.544;2022-10-26T02:06:15;59.77;41.28;74.56;;
18377;Laerm;9315;52.624;13.544;2022-10-26T02:09:10;56.53;41.18;71.59;;
18377;Laerm;9315;52.624;13.544;2022-10-26T02:11:43;64.34;42.45;78.09;;
18377;Laerm;9315;52.624;13.544;2022-10-26T02:20:03;63.58;42.44;77.31;;
18377;Laerm;9315;52.624;13.544;2022-10-26T02:22:37;66.85;44.01;82.16;;
18377;Laerm;9315;52.624;13.544;2022-10-26T02:25:11;62.11;45.44;78.15;;
18377;Laerm;9315;52.624;13.544;2022-10-26T02:27:47;63.62;42.59;75.48;;
18377;Laerm;9315;52.624;13.544;2022-10-26T02:30:17;63.10;41.08;79.62;;
18377;Laerm;9315;52.624;13.544;2022-10-26T02:32:53;54.22;40.34;68.87;;
18377;Laerm;9315;52.624;13.544;2022-10-26T02:35:27;67.23;44.43;80.33;;
18377;Laerm;9315;52.624;13.544;2022-10-26T02:38:01;66.94;45.35;81.28;;
18377;Laerm;9315;52.624;13.544;2022-10-26T02:40:31;67.13;45.21;81.99;;
18377;Laerm;9315;52.624;13.544;2022-10-26T02:43:07;62.89;46.62;75.99;;
18377;Laerm;9315;52.624;13.544;2022-10-26T02:45:45;63.67;44.40;79.08;;
18377;Laerm;9315;52.624;13.544;2022-10-26T02:48:14;63.43;45.49;77.74;;
18377;Laerm;9315;52.624;13.544;2022-10-26T02:51:11;63.35;44.89;76.90;;
18377;Laerm;9315;52.624;13.544;2022-10-26T02:54:04;63.07;47.55;76.28;;
18377;Laerm;9315;52.624;13.544;2022-10-26T02:56:51;65.79;44.60;79.76;;
18377;Laerm;9315;52.624;13.544;2022-10-26T02:59:21;65.30;45.50;79.97;;
18377;Laerm;9315;52.624;13.544;2022-10-26T03:01:50;67.30;45.78;84.04;;
18377;Laerm;9315;52.624;13.544;2022-10-26T03:04:19;64.24;47.07;76.53;;
18377;Laerm;9315;52.624;13.544;2022-10-26T03:06:53;65.71;46.30;78.82;;
18377;Laerm;9315;52.624;13.544;2022-10-26T03:09:20;65.72;48.15;76.05;;
18377;Laerm;9315;52.624;13.544;2022-10-26T03:11:52;67.64;49.39;78.64;;
18377;Laerm;9315;52.624;13.544;2022-10-26T03:14:19;67.58;48.24;80.16;;
18377;Laerm;9315;52.624;13.544;2022-10-26T03:16:46;68.23;50.42;77.56;;
18377;Laerm;9315;52.624;13.544;2022-10-26T03:19:13;68.17;49.72;78.48;;
18377;Laerm;9315;52.624;13.544;2022-10-26T03:21:40;69.36;48.87;81.68;;
18377;Laerm;9315;52.624;13.544;2022-10-26T03:24:09;66.19;50.73;74.27;;
18377;Laerm;9315;52.624;13.544;2022-10-26T03:26:36;68.58;51.14;83.15;;
18377;Laerm;9315;52.624;13.544;2022-10-26T03:29:03;66.44;49.98;77.14;;
18377;Laerm;9315;52.624;13.544;2022-10-26T03:31:30;68.74;51.78;82.59;;
18377;Laerm;9315;52.624;13.544;2022-10-26T03:33:57;65.83;50.77;76.47;;
18377;Laerm;9315;52.624;13.544;2022-10-26T03:36:24;69.07;51.58;80.46;;
18377;Laerm;9315;52.624;13.544;2022-10-26T03:38:51;68.47;52.55;78.02;;
18377;Laerm;9315;52.624;13.544;2022-10-26T03:41:18;67.34;50.04;78.62;;
18377;Laerm;9315;52.624;13.544;2022-10-26T03:43:46;68.52;52.36;76.60;;
18377;Laerm;9315;52.624;13.544;2022-10-26T03:46:14;66.76;50.92;76.11;;
18377;Laerm;9315;52.624;13.544;2022-10-26T03:48:41;67.89;52.84;81.51;;
18377;Laerm;9315;52.624;13.544;2022-10-26T03:51:08;70.54;50.65;83.27;;
18377;Laerm;9315;52.624;13.544;2022-10-26T03:53:35;69.29;53.22;79.37;;
18377;Laerm;9315;52.624;13.544;2022-10-26T03:56:02;69.15;50.95;78.01;;
18377;Laerm;9315;52.624;13.544;2022-10-26T03:58:29;69.57;51.04;79.50;;
18377;Laerm;9315;52.624;13.544;2022-10-26T04:00:56;69.59;52.36;82.66;;
18377;Laerm;9315;52.624;13.544;2022-10-26T04:03:23;68.71;51.13;81.33;;
18377;Laerm;9315;52.624;13.544;2022-10-26T04:05:50;69.84;52.14;79.59;;
18377;Laerm;9315;52.624;13.544;2022-10-26T04:08:17;68.52;52.09;79.40;;
18377;Laerm;9315;52.624;13.544;2022-10-26T04:10:45;69.28;50.87;80.61;;
18377;Laerm;9315;52.624;13.544;2022-10-26T04:13:13;70.16;54.09;82.04;;
18377;Laerm;9315;52.624;13.544;2022-10-26T04:15:40;70.44;54.33;77.70;;
18377;Laerm;9315;52.624;13.544;2022-10-26T04:18:09;70.25;52.51;80.61;;
18377;Laerm;9315;52.624;13.544;2022-10-26T04:20:39;68.82;52.85;78.66;;
18377;Laerm;9315;52.624;13.544;2022-10-26T04:23:13;69.34;53.25;79.27;;
18377;Laerm;9315;52.624;13.544;2022-10-26T04:25:40;71.57;52.71;82.99;;
18377;Laerm;9315;52.624;13.544;2022-10-26T04:28:10;69.22;51.78;79.64;;
18377;Laerm;9315;52.624;13.544;2022-10-26T04:30:38;69.73;52.69;79.29;;
18377;Laerm;9315;52.624;13.544;2022-10-26T04:33:06;66.95;53.20;80.22;;
18377;Laerm;9315;52.624;13.544;2022-10-26T04:35:33;70.93;57.32;78.79;;
18377;Laerm;9315;52.624;13.544;2022-10-26T04:38:05;70.40;54.75;82.21;;
18377;Laerm;9315;52.624;13.544;2022-10-26T04:40:34;69.88;54.33;78.51;;
18377;Laerm;9315;52.624;13.544;2022-10-26T04:43:01;69.55;53.39;81.77;;
18377;Laerm;9315;52.624;13.544;2022-10-26T04:45:28;70.55;54.33;83.91;;
18377;Laerm;9315;52.624;13.544;2022-10-26T04:48:05;69.57;55.53;78.69;;
18377;Laerm;9315;52.624;13.544;2022-10-26T04:50:33;69.32;55.10;77.38;;
18377;Laerm;9315;52.624;13.544;2022-10-26T04:53:00;69.03;54.68;78.01;;
18377;Laerm;9315;52.624;13.544;2022-10-26T04:55:27;69.16;53.95;78.08;;
18377;Laerm;9315;52.624;13.544;2022-10-26T04:57:54;69.69;51.38;79.70;;
18377;Laerm;9315;52.624;13.544;2022-10-26T05:00:26;68.34;53.73;78.06;;
18377;Laerm;9315;52.624;13.544;2022-10-26T05:03:00;69.06;55.22;77.45;;
18377;Laerm;9315;52.624;13.544;2022-10-26T05:05:29;69.73;55.13;79.20;;
18377;Laerm;9315;52.624;13.544;2022-10-26T05:07:57;70.24;53.12;82.03;;
18377;Laerm;9315;52.624;13.544;2022-10-26T05:10:25;68.05;51.66;77.93;;
18377;Laerm;9315;52.624;13.544;2022-10-26T05:12:54;69.89;52.70;79.72;;
18377;Laerm;9315;52.624;13.544;2022-10-26T05:15:22;69.49;52.00;78.96;;
18377;Laerm;9315;52.624;13.544;2022-10-26T05:18:01;71.01;56.80;83.66;;
18377;Laerm;9315;52.624;13.544;2022-10-26T05:20:32;70.78;51.78;83.32;;
18377;Laerm;9315;52.624;13.544;2022-10-26T05:23:04;69.88;52.97;79.71;;
18377;Laerm;9315;52.624;13.544;2022-10-26T05:25:35;67.89;52.57;80.23;;
18377;Laerm;9315;52.624;13.544;2022-10-26T05:28:09;67.11;53.75;77.41;;
18377;Laerm;9315;52.624;13.544;2022-10-26T05:30:43;67.60;52.54;79.34;;
18377;Laerm;9315;52.624;13.544;2022-10-26T05:33:11;69.46;51.65;83.57;;
18377;Laerm;9315;52.624;13.544;2022-10-26T05:35:39;69.96;55.27;81.49;;
18377;Laerm;9315;52.624;13.544;2022-10-26T05:38:17;71.00;51.91;82.08;;
18377;Laerm;9315;52.624;13.544;2022-10-26T05:40:48;70.39;53.99;82.18;;
18377;Laerm;9315;52.624;13.544;2022-10-26T05:43:16;69.75;52.36;80.28;;
18377;Laerm;9315;52.624;13.544;2022-10-26T05:45:44;71.29;54.59;81.08;;
18377;Laerm;9315;52.624;13.544;2022-10-26T05:48:11;69.69;54.11;83.26;;
18377;Laerm;9315;52.624;13.544;2022-10-26T05:50:38;69.48;53.32;78.56;;
18377;Laerm;9315;52.624;13.544;2022-10-26T05:53:05;71.93;54.31;81.23;;
18377;Laerm;9315;52.624;13.544;2022-10-26T05:55:33;71.99;55.93;84.02;;
18377;Laerm;9315;52.624;13.544;2022-10-26T05:58:01;69.86;54.49;81.23;;
18377;Laerm;9315;52.624;13.544;2022-10-26T06:00:29;70.75;54.73;82.10;;
18377;Laerm;9315;52.624;13.544;2022-10-26T06:03:29;71.92;56.42;84.68;;
18377;Laerm;9315;52.624;13.544;2022-10-26T06:06:01;70.44;55.62;84.42;;
18377;Laerm;9315;52.624;13.544;2022-10-26T06:08:33;71.70;54.98;87.31;;
18377;Laerm;9315;52.624;13.544;2022-10-26T06:11:00;68.60;54.09;79.39;;
18377;Laerm;9315;52.624;13.544;2022-10-26T06:13:29;72.76;57.24;80.66;;
18377;Laerm;9315;52.624;13.544;2022-10-26T06:30:31;68.84;55.56;77.69;;
18377;Laerm;9315;52.624;13.544;2022-10-26T06:32:58;69.91;55.33;79.30;;
18377;Laerm;9315;52.624;13.544;2022-10-26T06:36:10;71.46;55.37;86.83;;
18377;Laerm;9315;52.624;13.544;2022-10-26T06:38:42;69.84;54.95;78.33;;
18377;Laerm;9315;52.624;13.544;2022-10-26T06:41:12;69.66;56.46;77.88;;
18377;Laerm;9315;52.624;13.544;2022-10-26T06:43:46;70.66;54.21;80.80;;
18377;Laerm;9315;52.624;13.544;2022-10-26T06:52:50;70.45;55.43;83.03;;
18377;Laerm;9315;52.624;13.544;2022-10-26T06:55:20;71.50;55.47;83.25;;
18377;Laerm;9315;52.624;13.544;2022-10-26T06:57:48;71.01;56.27;82.41;;
18377;Laerm;9315;52.624;13.544;2022-10-26T07:00:21;70.58;56.02;83.17;;
18377;Laerm;9315;52.624;13.544;2022-10-26T07:02:49;70.82;55.14;83.47;;
18377;Laerm;9315;52.624;13.544;2022-10-26T07:05:17;69.10;55.85;80.80;;
18377;Laerm;9315;52.624;13.544;2022-10-26T07:07:46;71.49;57.48;81.12;;
18377;Laerm;9315;52.624;13.544;2022-10-26T07:10:14;70.95;57.03;79.59;;
18377;Laerm;9315;52.624;13.544;2022-10-26T07:12:41;67.37;57.43;78.08;;
18377;Laerm;9315;52.624;13.544;2022-10-26T07:15:09;70.42;55.12;81.66;;
18377;Laerm;9315;52.624;13.544;2022-10-26T07:17:47;71.27;55.75;82.54;;
18377;Laerm;9315;52.624;13.544;2022-10-26T07:20:19;70.98;57.69;82.35;;
18377;Laerm;9315;52.624;13.544;2022-10-26T07:22:56;68.62;55.28;85.21;;
18377;Laerm;9315;52.624;13.544;2022-10-26T07:25:25;71.42;54.52;85.10;;
18377;Laerm;9315;52.624;13.544;2022-10-26T07:27:57;69.06;54.71;83.60;;
18377;Laerm;9315;52.624;13.544;2022-10-26T07:30:27;70.04;54.56;83.82;;
18377;Laerm;9315;52.624;13.544;2022-10-26T07:33:05;69.46;54.03;79.80;;
18377;Laerm;9315;52.624;13.544;2022-10-26T07:35:33;69.28;56.10;80.30;;
18377;Laerm;9315;52.624;13.544;2022-10-26T07:38:00;70.17;55.93;81.56;;
18377;Laerm;9315;52.624;13.544;2022-10-26T07:40:28;70.89;55.47;81.61;;
18377;Laerm;9315;52.624;13.544;2022-10-26T07:42:58;70.40;52.23;80.98;;
18377;Laerm;9315;52.624;13.544;2022-10-26T07:45:28;70.12;52.46;81.78;;
18377;Laerm;9315;52.624;13.544;2022-10-26T07:47:55;70.73;53.77;81.69;;
18377;Laerm;9315;52.624;13.544;2022-10-26T07:50:22;68.93;54.31;76.37;;
18377;Laerm;9315;52.624;13.544;2022-10-26T07:52:49;70.18;52.93;80.44;;
18377;Laerm;9315;52.624;13.544;2022-10-26T07:55:17;69.54;50.73;82.73;;
18377;Laerm;9315;52.624;13.544;2022-10-26T07:57:45;71.92;56.50;83.57;;
18377;Laerm;9315;52.624;13.544;2022-10-26T08:00:18;67.26;52.80;76.64;;
18377;Laerm;9315;52.624;13.544;2022-10-26T08:02:45;71.24;51.85;77.66;;
18377;Laerm;9315;52.624;13.544;2022-10-26T08:05:12;69.68;50.96;82.93;;
18377;Laerm;9315;52.624;13.544;2022-10-26T08:07:42;70.27;50.76;80.86;;
18377;Laerm;9315;52.624;13.544;2022-10-26T08:10:12;70.24;50.13;80.75;;
18377;Laerm;9315;52.624;13.544;2022-10-26T08:12:41;69.69;49.03;78.58;;
18377;Laerm;9315;52.624;13.544;2022-10-26T08:15:09;71.22;49.24;82.01;;
18377;Laerm;9315;52.624;13.544;2022-10-26T08:17:36;70.28;51.59;81.23;;
18377;Laerm;9315;52.624;13.544;2022-10-26T08:20:04;70.52;50.61;81.76;;
18377;Laerm;9315;52.624;13.544;2022-10-26T08:22:31;70.33;50.42;86.01;;
18377;Laerm;9315;52.624;13.544;2022-10-26T08:24:58;70.96;48.90;84.73;;
18377;Laerm;9315;52.624;13.544;2022-10-26T08:27:26;70.47;47.92;81.39;;
18377;Laerm;9315;52.624;13.544;2022-10-26T08:29:53;69.28;47.63;79.12;;
18377;Laerm;9315;52.624;13.544;2022-10-26T08:32:20;69.78;50.29;80.79;;
18377;Laerm;9315;52.624;13.544;2022-10-26T08:34:47;71.30;53.85;80.76;;
18377;Laerm;9315;52.624;13.544;2022-10-26T08:37:14;69.43;51.55;77.14;;
18377;Laerm;9315;52.624;13.544;2022-10-26T08:39:41;71.07;51.76;80.25;;
18377;Laerm;9315;52.624;13.544;2022-10-26T08:42:23;69.22;48.35;79.08;;
18377;Laerm;9315;52.624;13.544;2022-10-26T08:45:00;68.51;46.13;77.89;;
18377;Laerm;9315;52.624;13.544;2022-10-26T08:47:43;69.50;48.72;79.81;;
18377;Laerm;9315;52.624;13.544;2022-10-26T08:59:15;67.64;44.56;77.97;;
18377;Laerm;9315;52.624;13.544;2022-10-26T09:01:43;70.84;49.30;87.91;;
18377;Laerm;9315;52.624;13.544;2022-10-26T09:04:11;70.09;47.15;80.92;;
18377;Laerm;9315;52.624;13.544;2022-10-26T09:10:38;72.08;54.60;83.82;;
18377;Laerm;9315;52.624;13.544;2022-10-26T09:13:33;69.99;46.16;81.24;;
18377;Laerm;9315;52.624;13.544;2022-10-26T09:16:52;68.55;42.35;77.45;;
18377;Laerm;9315;52.624;13.544;2022-10-26T09:19:50;78.48;45.33;100.39;;
18377;Laerm;9315;52.624;13.544;2022-10-26T09:23:21;69.02;46.57;77.53;;
18377;Laerm;9315;52.624;13.544;2022-10-26T09:25:59;68.42;44.98;81.93;;
18377;Laerm;9315;52.624;13.544;2022-10-26T09:28:33;69.93;50.33;82.53;;
18377;Laerm;9315;52.624;13.544;2022-10-26T09:31:04;71.00;52.63;85.23;;
18377;Laerm;9315;52.624;13.544;2022-10-26T09:33:36;70.20;46.50;79.12;;
18377;Laerm;9315;52.624;13.544;2022-10-26T09:36:27;68.69;44.56;80.78;;
18377;Laerm;9315;52.624;13.544;2022-10-26T09:39:12;70.28;50.53;79.03;;
18377;Laerm;9315;52.624;13.544;2022-10-26T09:41:59;71.97;53.39;89.01;;
18377;Laerm;9315;52.624;13.544;2022-10-26T09:44:42;70.79;41.95;84.25;;
18377;Laerm;9315;52.624;13.544;2022-10-26T09:50:35;72.82;48.69;85.52;;
18377;Laerm;9315;52.624;13.544;2022-10-26T09:53:03;70.19;45.78;80.13;;
18377;Laerm;9315;52.624;13.544;2022-10-26T09:55:31;69.28;43.98;80.08;;
18377;Laerm;9315;52.624;13.544;2022-10-26T09:58:03;68.63;50.29;78.83;;
18377;Laerm;9315;52.624;13.544;2022-10-26T10:00:33;68.49;48.30;79.21;;
18377;Laerm;9315;52.624;13.544;2022-10-26T10:03:01;69.20;49.84;79.43;;
18377;Laerm;9315;52.624;13.544;2022-10-26T10:05:33;68.90;44.42;78.08;;
18377;Laerm;9315;52.624;13.544;2022-10-26T10:08:25;69.34;47.22;88.94;;
18377;Laerm;9315;52.624;13.544;2022-10-26T10:11:14;70.01;45.45;80.79;;
18377;Laerm;9315;52.624;13.544;2022-10-26T10:25:37;70.43;47.76;78.39;;
18377;Laerm;9315;52.624;13.544;2022-10-26T10:28:26;67.21;46.73;77.82;;
18377;Laerm;9315;52.624;13.544;2022-10-26T10:31:04;69.08;51.87;79.35;;
18377;Laerm;9315;52.624;13.544;2022-10-26T10:33:40;70.34;51.93;84.18;;
18377;Laerm;9315;52.624;13.544;2022-10-26T10:36:23;70.78;45.38;92.44;;
18377;Laerm;9315;52.624;13.544;2022-10-26T10:38:52;70.94;47.16;83.12;;
18377;Laerm;9315;52.624;13.544;2022-10-26T10:41:47;68.69;48.54;80.89;;
18377;Laerm;9315;52.624;13.544;2022-10-26T10:44:25;68.88;47.80;77.60;;
18377;Laerm;9315;52.624;13.544;2022-10-26T10:47:05;69.54;46.93;82.21;;
18377;Laerm;9315;52.624;13.544;2022-10-26T10:49:33;70.71;51.95;82.25;;
18377;Laerm;9315;52.624;13.544;2022-10-26T10:52:00;70.80;48.53;85.13;;
18377;Laerm;9315;52.624;13.544;2022-10-26T10:54:36;67.84;45.09;79.35;;
18377;Laerm;9315;52.624;13.544;2022-10-26T10:57:55;71.52;51.89;80.51;;
18377;Laerm;9315;52.624;13.544;2022-10-26T11:00:26;68.87;45.80;79.10;;
18377;Laerm;9315;52.624;13.544;2022-10-26T11:03:41;71.14;52.83;82.19;;
18377;Laerm;9315;52.624;13.544;2022-10-26T11:06:24;70.58;49.80;81.13;;
18377;Laerm;9315;52.624;13.544;2022-10-26T11:09:12;69.01;44.52;78.65;;
18377;Laerm;9315;52.624;13.544;2022-10-26T11:11:57;70.58;47.07;78.52;;
18377;Laerm;9315;52.624;13.544;2022-10-26T11:14:44;67.17;45.36;77.44;;
18377;Laerm;9315;52.624;13.544;2022-10-26T11:17:25;71.79;50.01;86.85;;
18377;Laerm;9315;52.624;13.544;2022-10-26T11:20:10;69.66;48.81;79.61;;
18377;Laerm;9315;52.624;13.544;2022-10-26T11:23:34;69.27;47.66;77.69;;
18377;Laerm;9315;52.624;13.544;2022-10-26T11:26:31;70.42;49.85;82.67;;
18377;Laerm;9315;52.624;13.544;2022-10-26T11:29:37;68.10;46.67;78.83;;
18377;Laerm;9315;52.624;13.544;2022-10-26T11:35:44;69.29;43.75;79.85;;
18377;Laerm;9315;52.624;13.544;2022-10-26T11:41:56;69.22;44.70;76.54;;
18377;Laerm;9315;52.624;13.544;2022-10-26T11:45:00;69.62;43.95;77.77;;
18377;Laerm;9315;52.624;13.544;2022-10-26T11:47:50;68.98;45.48;82.80;;
18377;Laerm;9315;52.624;13.544;2022-10-26T11:50:33;69.65;47.80;81.97;;
18377;Laerm;9315;52.624;13.544;2022-10-26T11:53:21;70.40;52.30;90.68;;
18377;Laerm;9315;52.624;13.544;2022-10-26T11:55:54;69.15;47.12;79.22;;
18377;Laerm;9315;52.624;13.544;2022-10-26T11:58:26;71.05;44.33;87.44;;
18377;Laerm;9315;52.624;13.544;2022-10-26T12:01:09;69.38;44.37;80.80;;
18377;Laerm;9315;52.624;13.544;2022-10-26T12:03:47;69.19;46.44;80.42;;
18377;Laerm;9315;52.624;13.544;2022-10-26T12:06:22;68.96;42.60;78.58;;
18377;Laerm;9315;52.624;13.544;2022-10-26T12:09:11;69.15;46.24;80.57;;
18377;Laerm;9315;52.624;13.544;2022-10-26T12:12:42;86.70;48.07;109.03;;
18377;Laerm;9315;52.624;13.544;2022-10-26T12:15:58;70.91;50.18;81.98;;
18377;Laerm;9315;52.624;13.544;2022-10-26T12:18:56;69.63;47.03;80.99;;
18377;Laerm;9315;52.624;13.544;2022-10-26T12:21:28;70.15;47.87;82.91;;
18377;Laerm;9315;52.624;13.544;2022-10-26T12:24:33;69.34;50.06;79.00;;
18377;Laerm;9315;52.624;13.544;2022-10-26T12:27:04;69.27;47.69;78.52;;
18377;Laerm;9315;52.624;13.544;2022-10-26T12:29:46;69.19;46.91;77.05;;
18377;Laerm;9315;52.624;13.544;2022-10-26T12:35:42;69.83;45.63;79.97;;
18377;Laerm;9315;52.624;13.544;2022-10-26T12:38:26;68.97;47.29;82.02;;
18377;Laerm;9315;52.624;13.544;2022-10-26T12:43:39;70.31;46.96;80.21;;
18377;Laerm;9315;52.624;13.544;2022-10-26T12:56:44;71.80;51.41;85.92;;
18377;Laerm;9315;52.624;13.544;2022-10-26T13:08:12;68.22;52.38;79.39;;
18377;Laerm;9315;52.624;13.544;2022-10-26T13:13:55;68.86;51.93;75.78;;
18377;Laerm;9315;52.624;13.544;2022-10-26T13:16:27;70.34;48.46;82.26;;
18377;Laerm;9315;52.624;13.544;2022-10-26T13:18:55;67.96;45.71;78.04;;
18377;Laerm;9315;52.624;13.544;2022-10-26T13:21:24;70.67;52.14;84.76;;
18377;Laerm;9315;52.624;13.544;2022-10-26T13:26:23;70.49;49.13;80.59;;
18377;Laerm;9315;52.624;13.544;2022-10-26T13:28:55;69.36;47.43;78.48;;
18377;Laerm;9315;52.624;13.544;2022-10-26T13:34:17;70.06;52.99;78.66;;
18377;Laerm;9315;52.624;13.544;2022-10-26T13:37:23;69.39;52.85;82.14;;
18377;Laerm;9315;52.624;13.544;2022-10-26T13:39:54;69.91;51.65;80.05;;
18377;Laerm;9315;52.624;13.544;2022-10-26T13:45:40;69.92;48.76;77.56;;
18377;Laerm;9315;52.624;13.544;2022-10-26T13:48:27;69.84;45.32;83.42;;
18377;Laerm;9315;52.624;13.544;2022-10-26T13:51:01;67.83;49.40;78.92;;
18377;Laerm;9315;52.624;13.544;2022-10-26T13:53:59;70.44;48.56;90.76;;
18377;Laerm;9315;52.624;13.544;2022-10-26T13:56:36;68.39;50.69;75.66;;
18377;Laerm;9315;52.624;13.544;2022-10-26T13:59:12;68.30;48.93;75.56;;
18377;Laerm;9315;52.624;13.544;2022-10-26T14:01:40;69.63;53.87;78.97;;
18377;Laerm;9315;52.624;13.544;2022-10-26T14:04:25;68.11;48.48;78.64;;
18377;Laerm;9315;52.624;13.544;2022-10-26T14:06:52;68.36;45.93;78.19;;
18377;Laerm;9315;52.624;13.544;2022-10-26T14:09:21;70.00;48.67;80.18;;
18377;Laerm;9315;52.624;13.544;2022-10-26T14:12:01;70.21;53.06;78.95;;
18377;Laerm;9315;52.624;13.544;2022-10-26T14:14:36;68.70;49.07;78.67;;
18377;Laerm;9315;52.624;13.544;2022-10-26T14:17:04;69.15;48.06;76.21;;
18377;Laerm;9315;52.624;13.544;2022-10-26T14:19:38;70.21;54.26;78.39;;
18377;Laerm;9315;52.624;13.544;2022-10-26T14:22:06;69.68;49.88;77.54;;
18377;Laerm;9315;52.624;13.544;2022-10-26T14:24:36;70.63;54.33;76.40;;
18377;Laerm;9315;52.624;13.544;2022-10-26T14:27:16;68.48;51.92;83.01;;
18377;Laerm;9315;52.624;13.544;2022-10-26T14:29:44;71.97;51.06;89.26;;
18377;Laerm;9315;52.624;13.544;2022-10-26T14:32:30;69.53;51.43;79.21;;
18377;Laerm;9315;52.624;13.544;2022-10-26T14:34:59;67.04;49.54;78.85;;
18377;Laerm;9315;52.624;13.544;2022-10-26T14:37:56;69.70;50.05;79.87;;
18377;Laerm;9315;52.624;13.544;2022-10-26T14:40:29;70.98;52.88;83.68;;
18377;Laerm;9315;52.624;13.544;2022-10-26T14:43:00;69.70;52.14;87.00;;
18377;Laerm;9315;52.624;13.544;2022-10-26T14:45:36;70.18;51.24;82.26;;
18377;Laerm;9315;52.624;13.544;2022-10-26T14:48:31;71.05;51.81;79.65;;
18377;Laerm;9315;52.624;13.544;2022-10-26T14:51:18;70.09;54.05;81.03;;
18377;Laerm;9315;52.624;13.544;2022-10-26T14:53:51;69.87;49.26;79.94;;
18377;Laerm;9315;52.624;13.544;2022-10-26T14:59:32;69.86;49.43;77.70;;
18377;Laerm;9315;52.624;13.544;2022-10-26T15:02:20;69.08;52.31;78.42;;
18377;Laerm;9315;52.624;13.544;2022-10-26T15:07:53;70.41;50.81;80.68;;
18377;Laerm;9315;52.624;13.544;2022-10-26T15:13:30;70.23;52.45;80.87;;
18377;Laerm;9315;52.624;13.544;2022-10-26T15:16:16;70.64;56.24;76.86;;
18377;Laerm;9315;52.624;13.544;2022-10-26T15:18:48;70.59;50.15;85.51;;
18377;Laerm;9315;52.624;13.544;2022-10-26T15:21:23;71.07;50.83;88.50;;
18377;Laerm;9315;52.624;13.544;2022-10-26T15:23:52;68.90;49.60;78.84;;
18377;Laerm;9315;52.624;13.544;2022-10-26T15:26:20;68.41;52.21;77.95;;
18377;Laerm;9315;52.624;13.544;2022-10-26T15:28:51;71.35;53.75;86.02;;
18377;Laerm;9315;52.624;13.544;2022-10-26T15:36:23;68.50;51.65;77.00;;
18377;Laerm;9315;52.624;13.544;2022-10-26T15:38:50;70.66;51.84;79.62;;
18377;Laerm;9315;52.624;13.544;2022-10-26T15:43:59;69.48;49.61;78.75;;
18377;Laerm;9315;52.624;13.544;2022-10-26T15:46:36;69.40;53.23;79.14;;
18377;Laerm;9315;52.624;13.544;2022-10-26T15:49:07;69.05;51.51;77.32;;
18377;Laerm;9315;52.624;13.544;2022-10-26T15:51:43;69.52;49.43;77.48;;
18377;Laerm;9315;52.624;13.544;2022-10-26T15:54:11;68.89;49.76;81.42;;
18377;Laerm;9315;52.624;13.544;2022-10-26T15:56:38;69.63;47.31;80.26;;
18377;Laerm;9315;52.624;13.544;2022-10-26T15:59:16;69.50;53.44;77.31;;
18377;Laerm;9315;52.624;13.544;2022-10-26T16:01:44;69.42;50.76;79.21;;
18377;Laerm;9315;52.624;13.544;2022-10-26T16:04:11;69.09;52.40;77.60;;
18377;Laerm;9315;52.624;13.544;2022-10-26T16:06:40;69.21;51.35;77.41;;
18377;Laerm;9315;52.624;13.544;2022-10-26T16:09:15;70.39;54.02;81.80;;
18377;Laerm;9315;52.624;13.544;2022-10-26T16:11:44;69.42;51.88;76.89;;
18377;Laerm;9315;52.624;13.544;2022-10-26T16:14:11;68.73;49.99;78.39;;
18377;Laerm;9315;52.624;13.544;2022-10-26T16:16:39;66.88;49.08;76.24;;
18377;Laerm;9315;52.624;13.544;2022-10-26T16:19:09;87.96;53.39;108.83;;
18377;Laerm;9315;52.624;13.544;2022-10-26T16:21:57;69.41;51.43;81.80;;
18377;Laerm;9315;52.624;13.544;2022-10-26T16:24:28;69.63;49.73;78.76;;
18377;Laerm;9315;52.624;13.544;2022-10-26T16:26:56;68.20;51.03;75.58;;
18377;Laerm;9315;52.624;13.544;2022-10-26T16:29:23;69.33;48.67;80.55;;
18377;Laerm;9315;52.624;13.544;2022-10-26T16:31:50;68.73;47.49;79.39;;
18377;Laerm;9315;52.624;13.544;2022-10-26T16:34:17;67.00;48.81;78.02;;
18377;Laerm;9315;52.624;13.544;2022-10-26T16:36:44;67.48;52.00;76.60;;
18377;Laerm;9315;52.624;13.544;2022-10-26T16:39:12;67.29;50.77;75.81;;
18377;Laerm;9315;52.624;13.544;2022-10-26T16:41:39;68.69;53.62;79.37;;
18377;Laerm;9315;52.624;13.544;2022-10-26T16:44:06;67.80;49.01;80.07;;